sensor_id;sensor_type;location;lat;lon;timestamp;P1;durP1;ratioP1;P2;durP2;ratioP2
62071;SDS011;48031;48.542;13.232;2023-04-25T00:00:24;0.90;;;0.90;;
62071;SDS011;48031;48.542;13.232;2023-04-25T00:04:26;1.00;;;1.00;;
62071;SDS011;48031;48.542;13.232;2023-04-25T00:08:29;1.30;;;1.05;;
62071;SDS011;48031;48.542;13.232;2023-04-25T00:12:31;1.08;;;1.08;;
62071;SDS011;48031;48.542;13.232;2023-04-25T00:16:34;1.63;;;1.27;;
62071;SDS011;48031;48.542;13.232;2023-04-25T00:20:37;1.20;;;1.10;;
62071;SDS011;48031;48.542;13.232;2023-04-25T00:24:38;1.20;;;1.10;;
62071;SDS011;48031;48.542;13.232;2023-04-25T00:28:40;1.00;;;1.00;;
62071;SDS011;48031;48.542;13.232;2023-04-25T00:32:42;1.33;;;1.05;;
62071;SDS011;48031;48.542;13.232;2023-04-25T00:36:44;1.02;;;1.00;;
62071;SDS011;48031;48.542;13.232;2023-04-25T00:40:46;0.90;;;0.90;;
62071;SDS011;48031;48.542;13.232;2023-04-25T00:44:48;0.80;;;0.80;;
62071;SDS011;48031;48.542;13.232;2023-04-25T00:48:50;0.85;;;0.85;;
62071;SDS011;48031;48.542;13.232;2023-04-25T00:52:51;1.10;;;1.00;;
62071;SDS011;48031;48.542;13.232;2023-04-25T00:56:54;1.50;;;1.40;;
62071;SDS011;48031;48.542;13.232;2023-04-25T01:00:56;1.67;;;1.58;;
62071;SDS011;48031;48.542;13.232;2023-04-25T01:04:59;3.30;;;1.73;;
62071;SDS011;48031;48.542;13.232;2023-04-25T01:09:00;2.17;;;1.70;;
62071;SDS011;48031;48.542;13.232;2023-04-25T01:13:04;2.10;;;1.80;;
62071;SDS011;48031;48.542;13.232;2023-04-25T01:17:06;1.83;;;1.50;;
62071;SDS011;48031;48.542;13.232;2023-04-25T01:21:09;2.10;;;1.70;;
62071;SDS011;48031;48.542;13.232;2023-04-25T01:25:13;1.58;;;1.38;;
62071;SDS011;48031;48.542;13.232;2023-04-25T01:29:19;1.50;;;1.40;;
62071;SDS011;48031;48.542;13.232;2023-04-25T01:33:21;1.17;;;1.13;;
62071;SDS011;48031;48.542;13.232;2023-04-25T01:37:23;1.02;;;1.02;;
62071;SDS011;48031;48.542;13.232;2023-04-25T01:41:25;1.10;;;1.10;;
62071;SDS011;48031;48.542;13.232;2023-04-25T01:45:27;0.95;;;0.95;;
62071;SDS011;48031;48.542;13.232;2023-04-25T01:49:29;0.90;;;0.90;;
62071;SDS011;48031;48.542;13.232;2023-04-25T01:53:31;0.80;;;0.80;;
62071;SDS011;48031;48.542;13.232;2023-04-25T01:57:34;1.33;;;1.23;;
62071;SDS011;48031;48.542;13.232;2023-04-25T02:01:38;1.50;;;1.40;;
62071;SDS011;48031;48.542;13.232;2023-04-25T02:05:52;1.23;;;1.20;;
62071;SDS011;48031;48.542;13.232;2023-04-25T02:09:54;1.30;;;1.20;;
62071;SDS011;48031;48.542;13.232;2023-04-25T02:13:57;1.38;;;1.10;;
62071;SDS011;48031;48.542;13.232;2023-04-25T02:18:16;0.95;;;0.95;;
62071;SDS011;48031;48.542;13.232;2023-04-25T02:22:18;0.90;;;0.90;;
62071;SDS011;48031;48.542;13.232;2023-04-25T02:26:20;1.65;;;1.27;;
62071;SDS011;48031;48.542;13.232;2023-04-25T02:30:22;1.65;;;1.35;;
62071;SDS011;48031;48.542;13.232;2023-04-25T02:34:24;1.40;;;1.30;;
62071;SDS011;48031;48.542;13.232;2023-04-25T02:38:26;1.50;;;1.40;;
62071;SDS011;48031;48.542;13.232;2023-04-25T02:42:28;1.20;;;1.10;;
62071;SDS011;48031;48.542;13.232;2023-04-25T02:46:31;1.30;;;1.20;;
62071;SDS011;48031;48.542;13.232;2023-04-25T02:54:40;0.75;;;0.75;;
62071;SDS011;48031;48.542;13.232;2023-04-25T02:58:42;0.95;;;0.95;;
62071;SDS011;48031;48.542;13.232;2023-04-25T03:02:44;1.10;;;1.10;;
62071;SDS011;48031;48.542;13.232;2023-04-25T03:06:47;1.40;;;1.30;;
62071;SDS011;48031;48.542;13.232;2023-04-25T03:10:49;1.00;;;1.00;;
62071;SDS011;48031;48.542;13.232;2023-04-25T03:14:53;1.10;;;1.00;;
62071;SDS011;48031;48.542;13.232;2023-04-25T03:18:54;0.90;;;0.90;;
62071;SDS011;48031;48.542;13.232;2023-04-25T03:22:56;0.90;;;0.90;;
62071;SDS011;48031;48.542;13.232;2023-04-25T03:26:58;1.17;;;1.10;;
62071;SDS011;48031;48.542;13.232;2023-04-25T03:31:02;0.90;;;0.90;;
62071;SDS011;48031;48.542;13.232;2023-04-25T03:35:04;0.90;;;0.90;;
62071;SDS011;48031;48.542;13.232;2023-04-25T03:39:07;1.13;;;1.02;;
62071;SDS011;48031;48.542;13.232;2023-04-25T03:43:11;0.95;;;0.95;;
62071;SDS011;48031;48.542;13.232;2023-04-25T03:47:19;0.82;;;0.82;;
62071;SDS011;48031;48.542;13.232;2023-04-25T03:51:23;0.80;;;0.80;;
62071;SDS011;48031;48.542;13.232;2023-04-25T03:55:25;0.80;;;0.80;;
62071;SDS011;48031;48.542;13.232;2023-04-25T03:59:27;0.80;;;0.80;;
62071;SDS011;48031;48.542;13.232;2023-04-25T04:03:29;1.02;;;0.98;;
62071;SDS011;48031;48.542;13.232;2023-04-25T04:07:32;0.80;;;0.80;;
62071;SDS011;48031;48.542;13.232;2023-04-25T04:11:39;0.98;;;0.98;;
62071;SDS011;48031;48.542;13.232;2023-04-25T04:15:42;0.95;;;0.90;;
62071;SDS011;48031;48.542;13.232;2023-04-25T04:19:44;1.35;;;1.15;;
62071;SDS011;48031;48.542;13.232;2023-04-25T04:23:50;1.20;;;1.10;;
62071;SDS011;48031;48.542;13.232;2023-04-25T04:27:54;1.00;;;1.00;;
62071;SDS011;48031;48.542;13.232;2023-04-25T04:32:02;0.90;;;0.90;;
62071;SDS011;48031;48.542;13.232;2023-04-25T04:36:06;0.90;;;0.90;;
62071;SDS011;48031;48.542;13.232;2023-04-25T04:40:09;0.80;;;0.80;;
62071;SDS011;48031;48.542;13.232;2023-04-25T04:44:19;1.58;;;1.10;;
62071;SDS011;48031;48.542;13.232;2023-04-25T04:48:41;0.90;;;0.90;;
62071;SDS011;48031;48.542;13.232;2023-04-25T04:53:15;1.08;;;1.00;;
62071;SDS011;48031;48.542;13.232;2023-04-25T04:57:27;0.90;;;0.90;;
62071;SDS011;48031;48.542;13.232;2023-04-25T05:01:47;0.85;;;0.85;;
62071;SDS011;48031;48.542;13.232;2023-04-25T05:06:09;0.90;;;0.90;;
62071;SDS011;48031;48.542;13.232;2023-04-25T05:10:23;0.88;;;0.88;;
62071;SDS011;48031;48.542;13.232;2023-04-25T05:14:33;1.20;;;1.00;;
62071;SDS011;48031;48.542;13.232;2023-04-25T05:19:03;0.80;;;0.80;;
62071;SDS011;48031;48.542;13.232;2023-04-25T05:23:24;1.08;;;1.02;;
62071;SDS011;48031;48.542;13.232;2023-04-25T05:27:25;1.58;;;0.98;;
62071;SDS011;48031;48.542;13.232;2023-04-25T05:31:54;1.00;;;0.98;;
62071;SDS011;48031;48.542;13.232;2023-04-25T05:35:56;1.42;;;1.33;;
62071;SDS011;48031;48.542;13.232;2023-04-25T05:39:59;2.42;;;1.30;;
62071;SDS011;48031;48.542;13.232;2023-04-25T05:44:20;1.30;;;1.20;;
62071;SDS011;48031;48.542;13.232;2023-04-25T05:48:35;2.33;;;1.70;;
62071;SDS011;48031;48.542;13.232;2023-04-25T05:53:12;3.20;;;2.17;;
62071;SDS011;48031;48.542;13.232;2023-04-25T05:57:26;2.30;;;1.90;;
62071;SDS011;48031;48.542;13.232;2023-04-25T06:01:30;1.58;;;1.48;;
62071;SDS011;48031;48.542;13.232;2023-04-25T06:05:32;1.85;;;1.60;;
62071;SDS011;48031;48.542;13.232;2023-04-25T06:09:34;1.73;;;1.55;;
62071;SDS011;48031;48.542;13.232;2023-04-25T06:13:36;1.95;;;1.75;;
62071;SDS011;48031;48.542;13.232;2023-04-25T06:17:38;1.50;;;1.40;;
62071;SDS011;48031;48.542;13.232;2023-04-25T06:21:41;1.50;;;1.40;;
62071;SDS011;48031;48.542;13.232;2023-04-25T06:25:44;3.28;;;2.78;;
62071;SDS011;48031;48.542;13.232;2023-04-25T06:29:47;3.55;;;2.67;;
62071;SDS011;48031;48.542;13.232;2023-04-25T06:33:49;2.95;;;1.77;;
62071;SDS011;48031;48.542;13.232;2023-04-25T06:37:51;2.65;;;1.80;;
62071;SDS011;48031;48.542;13.232;2023-04-25T06:41:56;2.20;;;2.00;;
62071;SDS011;48031;48.542;13.232;2023-04-25T06:46:19;3.00;;;2.50;;
62071;SDS011;48031;48.542;13.232;2023-04-25T06:50:23;4.40;;;2.72;;
62071;SDS011;48031;48.542;13.232;2023-04-25T06:54:25;2.67;;;2.35;;
62071;SDS011;48031;48.542;13.232;2023-04-25T06:58:35;2.03;;;1.83;;
62071;SDS011;48031;48.542;13.232;2023-04-25T07:02:51;2.40;;;2.20;;
62071;SDS011;48031;48.542;13.232;2023-04-25T07:06:53;3.53;;;2.20;;
62071;SDS011;48031;48.542;13.232;2023-04-25T07:11:12;5.80;;;3.40;;
62071;SDS011;48031;48.542;13.232;2023-04-25T07:15:14;5.60;;;3.25;;
62071;SDS011;48031;48.542;13.232;2023-04-25T07:19:19;6.03;;;2.70;;
62071;SDS011;48031;48.542;13.232;2023-04-25T07:23:21;4.75;;;3.00;;
62071;SDS011;48031;48.542;13.232;2023-04-25T07:27:24;3.17;;;2.67;;
62071;SDS011;48031;48.542;13.232;2023-04-25T07:31:31;4.55;;;3.50;;
62071;SDS011;48031;48.542;13.232;2023-04-25T07:35:33;3.20;;;2.80;;
62071;SDS011;48031;48.542;13.232;2023-04-25T07:39:34;3.72;;;2.95;;
62071;SDS011;48031;48.542;13.232;2023-04-25T07:43:37;4.95;;;2.85;;
62071;SDS011;48031;48.542;13.232;2023-04-25T07:47:39;4.55;;;2.85;;
62071;SDS011;48031;48.542;13.232;2023-04-25T07:51:41;3.25;;;2.50;;
62071;SDS011;48031;48.542;13.232;2023-04-25T07:55:47;3.22;;;2.70;;
62071;SDS011;48031;48.542;13.232;2023-04-25T07:59:51;4.57;;;2.80;;
62071;SDS011;48031;48.542;13.232;2023-04-25T08:03:55;3.58;;;2.50;;
62071;SDS011;48031;48.542;13.232;2023-04-25T08:08:20;3.05;;;2.42;;
62071;SDS011;48031;48.542;13.232;2023-04-25T08:12:22;3.97;;;2.70;;
62071;SDS011;48031;48.542;13.232;2023-04-25T08:16:25;3.28;;;2.65;;
62071;SDS011;48031;48.542;13.232;2023-04-25T08:20:27;4.20;;;2.70;;
62071;SDS011;48031;48.542;13.232;2023-04-25T08:24:31;5.25;;;2.65;;
62071;SDS011;48031;48.542;13.232;2023-04-25T08:28:33;2.65;;;2.40;;
62071;SDS011;48031;48.542;13.232;2023-04-25T08:32:36;3.38;;;2.75;;
62071;SDS011;48031;48.542;13.232;2023-04-25T08:36:53;4.07;;;2.70;;
62071;SDS011;48031;48.542;13.232;2023-04-25T08:41:13;4.28;;;2.92;;
62071;SDS011;48031;48.542;13.232;2023-04-25T08:45:15;4.25;;;2.63;;
62071;SDS011;48031;48.542;13.232;2023-04-25T08:49:17;4.50;;;2.90;;
62071;SDS011;48031;48.542;13.232;2023-04-25T08:53:30;3.70;;;2.40;;
62071;SDS011;48031;48.542;13.232;2023-04-25T08:57:37;4.13;;;2.65;;
62071;SDS011;48031;48.542;13.232;2023-04-25T09:01:40;3.75;;;2.40;;
62071;SDS011;48031;48.542;13.232;2023-04-25T09:05:42;1.15;;;1.15;;
62071;SDS011;48031;48.542;13.232;2023-04-25T09:09:49;1.65;;;1.55;;
62071;SDS011;48031;48.542;13.232;2023-04-25T09:14:09;1.95;;;1.75;;
62071;SDS011;48031;48.542;13.232;2023-04-25T09:18:38;4.18;;;1.90;;
62071;SDS011;48031;48.542;13.232;2023-04-25T09:22:40;1.70;;;1.60;;
62071;SDS011;48031;48.542;13.232;2023-04-25T09:26:44;1.40;;;1.30;;
62071;SDS011;48031;48.542;13.232;2023-04-25T09:30:46;1.50;;;1.40;;
62071;SDS011;48031;48.542;13.232;2023-04-25T09:34:55;1.52;;;1.40;;
62071;SDS011;48031;48.542;13.232;2023-04-25T09:38:59;2.28;;;1.65;;
62071;SDS011;48031;48.542;13.232;2023-04-25T09:43:09;2.03;;;1.60;;
62071;SDS011;48031;48.542;13.232;2023-04-25T09:47:20;1.65;;;1.55;;
62071;SDS011;48031;48.542;13.232;2023-04-25T09:51:25;3.28;;;1.70;;
62071;SDS011;48031;48.542;13.232;2023-04-25T09:55:27;2.53;;;2.00;;
62071;SDS011;48031;48.542;13.232;2023-04-25T09:59:29;2.42;;;1.40;;
62071;SDS011;48031;48.542;13.232;2023-04-25T10:03:34;2.95;;;1.85;;
62071;SDS011;48031;48.542;13.232;2023-04-25T10:07:58;3.10;;;2.10;;
62071;SDS011;48031;48.542;13.232;2023-04-25T10:12:03;3.47;;;2.30;;
62071;SDS011;48031;48.542;13.232;2023-04-25T10:16:07;3.17;;;2.00;;
62071;SDS011;48031;48.542;13.232;2023-04-25T10:20:09;2.20;;;1.95;;
62071;SDS011;48031;48.542;13.232;2023-04-25T10:24:12;3.28;;;2.17;;
62071;SDS011;48031;48.542;13.232;2023-04-25T10:28:15;1.70;;;1.60;;
62071;SDS011;48031;48.542;13.232;2023-04-25T10:32:17;1.80;;;1.40;;
62071;SDS011;48031;48.542;13.232;2023-04-25T10:36:22;1.88;;;1.52;;
62071;SDS011;48031;48.542;13.232;2023-04-25T10:40:26;2.58;;;1.40;;
62071;SDS011;48031;48.542;13.232;2023-04-25T10:44:28;1.55;;;1.45;;
62071;SDS011;48031;48.542;13.232;2023-04-25T10:48:31;2.00;;;1.40;;
62071;SDS011;48031;48.542;13.232;2023-04-25T10:52:33;3.70;;;1.20;;
62071;SDS011;48031;48.542;13.232;2023-04-25T10:56:39;1.27;;;1.17;;
62071;SDS011;48031;48.542;13.232;2023-04-25T11:00:45;1.70;;;1.60;;
62071;SDS011;48031;48.542;13.232;2023-04-25T11:04:57;1.23;;;1.13;;
62071;SDS011;48031;48.542;13.232;2023-04-25T11:09:01;1.10;;;1.10;;
62071;SDS011;48031;48.542;13.232;2023-04-25T11:13:03;2.53;;;1.50;;
62071;SDS011;48031;48.542;13.232;2023-04-25T11:17:05;1.45;;;1.20;;
62071;SDS011;48031;48.542;13.232;2023-04-25T11:21:07;1.10;;;1.00;;
62071;SDS011;48031;48.542;13.232;2023-04-25T11:25:10;1.70;;;1.40;;
62071;SDS011;48031;48.542;13.232;2023-04-25T11:29:13;1.15;;;1.10;;
62071;SDS011;48031;48.542;13.232;2023-04-25T11:33:15;1.95;;;0.98;;
62071;SDS011;48031;48.542;13.232;2023-04-25T11:37:16;2.28;;;1.55;;
62071;SDS011;48031;48.542;13.232;2023-04-25T11:41:19;2.88;;;1.83;;
62071;SDS011;48031;48.542;13.232;2023-04-25T11:45:21;2.83;;;2.20;;
62071;SDS011;48031;48.542;13.232;2023-04-25T11:49:24;2.00;;;1.80;;
62071;SDS011;48031;48.542;13.232;2023-04-25T11:53:33;3.03;;;1.58;;
62071;SDS011;48031;48.542;13.232;2023-04-25T11:57:35;1.58;;;1.38;;
62071;SDS011;48031;48.542;13.232;2023-04-25T12:01:39;1.30;;;1.20;;
62071;SDS011;48031;48.542;13.232;2023-04-25T12:05:42;1.60;;;1.50;;
62071;SDS011;48031;48.542;13.232;2023-04-25T12:09:51;1.60;;;1.50;;
62071;SDS011;48031;48.542;13.232;2023-04-25T12:13:53;1.50;;;1.40;;
62071;SDS011;48031;48.542;13.232;2023-04-25T12:17:55;1.13;;;1.13;;
62071;SDS011;48031;48.542;13.232;2023-04-25T12:21:57;2.13;;;2.03;;
62071;SDS011;48031;48.542;13.232;2023-04-25T12:26:00;1.50;;;1.40;;
62071;SDS011;48031;48.542;13.232;2023-04-25T12:30:04;1.50;;;1.40;;
62071;SDS011;48031;48.542;13.232;2023-04-25T12:34:06;1.63;;;1.50;;
62071;SDS011;48031;48.542;13.232;2023-04-25T12:38:08;2.17;;;1.80;;
62071;SDS011;48031;48.542;13.232;2023-04-25T12:42:10;2.20;;;1.77;;
62071;SDS011;48031;48.542;13.232;2023-04-25T12:46:14;2.53;;;1.85;;
62071;SDS011;48031;48.542;13.232;2023-04-25T12:50:16;3.17;;;2.10;;
62071;SDS011;48031;48.542;13.232;2023-04-25T12:54:18;2.53;;;1.92;;
62071;SDS011;48031;48.542;13.232;2023-04-25T12:58:20;2.58;;;2.05;;
62071;SDS011;48031;48.542;13.232;2023-04-25T13:02:22;2.45;;;2.10;;
62071;SDS011;48031;48.542;13.232;2023-04-25T13:06:24;2.13;;;1.92;;
62071;SDS011;48031;48.542;13.232;2023-04-25T13:10:26;1.40;;;1.30;;
62071;SDS011;48031;48.542;13.232;2023-04-25T13:14:27;2.13;;;1.73;;
62071;SDS011;48031;48.542;13.232;2023-04-25T13:18:29;1.80;;;1.70;;
62071;SDS011;48031;48.542;13.232;2023-04-25T13:22:32;2.88;;;2.67;;
62071;SDS011;48031;48.542;13.232;2023-04-25T13:26:34;2.08;;;1.98;;
62071;SDS011;48031;48.542;13.232;2023-04-25T13:30:36;2.10;;;1.90;;
62071;SDS011;48031;48.542;13.232;2023-04-25T13:34:38;1.40;;;1.30;;
62071;SDS011;48031;48.542;13.232;2023-04-25T13:38:40;1.70;;;1.60;;
62071;SDS011;48031;48.542;13.232;2023-04-25T13:42:45;3.58;;;2.20;;
62071;SDS011;48031;48.542;13.232;2023-04-25T13:46:47;2.20;;;1.98;;
62071;SDS011;48031;48.542;13.232;2023-04-25T13:50:49;1.77;;;1.67;;
62071;SDS011;48031;48.542;13.232;2023-04-25T13:54:51;1.85;;;1.75;;
62071;SDS011;48031;48.542;13.232;2023-04-25T13:58:52;1.70;;;1.60;;
62071;SDS011;48031;48.542;13.232;2023-04-25T14:02:54;1.38;;;1.27;;
62071;SDS011;48031;48.542;13.232;2023-04-25T14:06:56;1.30;;;1.20;;
62071;SDS011;48031;48.542;13.232;2023-04-25T14:10:58;1.92;;;1.38;;
62071;SDS011;48031;48.542;13.232;2023-04-25T14:15:00;1.63;;;1.50;;
62071;SDS011;48031;48.542;13.232;2023-04-25T14:19:02;1.38;;;1.27;;
62071;SDS011;48031;48.542;13.232;2023-04-25T14:23:04;3.53;;;1.90;;
62071;SDS011;48031;48.542;13.232;2023-04-25T14:27:06;4.38;;;2.00;;
62071;SDS011;48031;48.542;13.232;2023-04-25T14:31:08;2.15;;;1.88;;
62071;SDS011;48031;48.542;13.232;2023-04-25T14:35:10;1.65;;;1.30;;
62071;SDS011;48031;48.542;13.232;2023-04-25T14:39:13;2.72;;;1.90;;
62071;SDS011;48031;48.542;13.232;2023-04-25T14:43:15;1.70;;;1.52;;
62071;SDS011;48031;48.542;13.232;2023-04-25T14:47:17;2.60;;;1.92;;
62071;SDS011;48031;48.542;13.232;2023-04-25T14:51:19;2.60;;;2.00;;
62071;SDS011;48031;48.542;13.232;2023-04-25T14:55:20;2.33;;;1.83;;
62071;SDS011;48031;48.542;13.232;2023-04-25T14:59:22;3.22;;;1.98;;
62071;SDS011;48031;48.542;13.232;2023-04-25T15:03:25;4.22;;;2.30;;
62071;SDS011;48031;48.542;13.232;2023-04-25T15:07:27;3.17;;;2.60;;
62071;SDS011;48031;48.542;13.232;2023-04-25T15:11:29;2.42;;;1.95;;
62071;SDS011;48031;48.542;13.232;2023-04-25T15:15:31;2.88;;;2.10;;
62071;SDS011;48031;48.542;13.232;2023-04-25T15:19:33;2.50;;;2.28;;
62071;SDS011;48031;48.542;13.232;2023-04-25T15:23:34;3.75;;;2.50;;
62071;SDS011;48031;48.542;13.232;2023-04-25T15:27:37;2.92;;;2.30;;
62071;SDS011;48031;48.542;13.232;2023-04-25T15:31:41;4.75;;;2.90;;
62071;SDS011;48031;48.542;13.232;2023-04-25T15:35:44;2.88;;;2.58;;
62071;SDS011;48031;48.542;13.232;2023-04-25T15:39:46;3.03;;;2.38;;
62071;SDS011;48031;48.542;13.232;2023-04-25T15:43:48;2.42;;;2.22;;
62071;SDS011;48031;48.542;13.232;2023-04-25T15:47:51;3.28;;;2.55;;
62071;SDS011;48031;48.542;13.232;2023-04-25T15:51:53;2.70;;;2.22;;
62071;SDS011;48031;48.542;13.232;2023-04-25T15:55:56;2.15;;;1.77;;
62071;SDS011;48031;48.542;13.232;2023-04-25T15:59:58;2.45;;;1.90;;
62071;SDS011;48031;48.542;13.232;2023-04-25T16:03:59;3.67;;;2.00;;
62071;SDS011;48031;48.542;13.232;2023-04-25T16:08:02;2.40;;;2.10;;
62071;SDS011;48031;48.542;13.232;2023-04-25T16:12:05;2.85;;;2.30;;
62071;SDS011;48031;48.542;13.232;2023-04-25T16:16:08;3.28;;;2.40;;
62071;SDS011;48031;48.542;13.232;2023-04-25T16:20:10;3.78;;;2.40;;
62071;SDS011;48031;48.542;13.232;2023-04-25T16:24:13;3.03;;;2.30;;
62071;SDS011;48031;48.542;13.232;2023-04-25T16:28:15;3.22;;;2.38;;
62071;SDS011;48031;48.542;13.232;2023-04-25T16:32:17;3.55;;;2.70;;
62071;SDS011;48031;48.542;13.232;2023-04-25T16:36:19;3.80;;;2.60;;
62071;SDS011;48031;48.542;13.232;2023-04-25T16:40:21;3.28;;;2.50;;
62071;SDS011;48031;48.542;13.232;2023-04-25T16:44:23;3.25;;;2.60;;
62071;SDS011;48031;48.542;13.232;2023-04-25T16:48:25;3.58;;;2.97;;
62071;SDS011;48031;48.542;13.232;2023-04-25T16:52:27;3.15;;;2.40;;
62071;SDS011;48031;48.542;13.232;2023-04-25T16:56:28;2.97;;;2.45;;
62071;SDS011;48031;48.542;13.232;2023-04-25T17:00:30;3.55;;;2.50;;
62071;SDS011;48031;48.542;13.232;2023-04-25T17:04:32;3.13;;;2.10;;
62071;SDS011;48031;48.542;13.232;2023-04-25T17:08:34;2.88;;;2.50;;
62071;SDS011;48031;48.542;13.232;2023-04-25T17:12:36;3.25;;;2.72;;
62071;SDS011;48031;48.542;13.232;2023-04-25T17:16:38;3.35;;;2.42;;
62071;SDS011;48031;48.542;13.232;2023-04-25T17:20:40;2.85;;;2.15;;
62071;SDS011;48031;48.542;13.232;2023-04-25T17:24:42;3.42;;;2.50;;
62071;SDS011;48031;48.542;13.232;2023-04-25T17:28:43;3.28;;;2.45;;
62071;SDS011;48031;48.542;13.232;2023-04-25T17:32:50;2.47;;;1.92;;
62071;SDS011;48031;48.542;13.232;2023-04-25T17:36:52;3.85;;;2.58;;
62071;SDS011;48031;48.542;13.232;2023-04-25T17:40:54;2.50;;;2.25;;
62071;SDS011;48031;48.542;13.232;2023-04-25T17:44:56;2.78;;;2.33;;
62071;SDS011;48031;48.542;13.232;2023-04-25T17:48:58;3.65;;;2.55;;
62071;SDS011;48031;48.542;13.232;2023-04-25T17:53:00;3.10;;;2.15;;
62071;SDS011;48031;48.542;13.232;2023-04-25T17:57:05;2.50;;;2.10;;
62071;SDS011;48031;48.542;13.232;2023-04-25T18:01:07;2.65;;;2.30;;
62071;SDS011;48031;48.542;13.232;2023-04-25T18:05:09;4.82;;;2.45;;
62071;SDS011;48031;48.542;13.232;2023-04-25T18:09:11;4.00;;;2.70;;
62071;SDS011;48031;48.542;13.232;2023-04-25T18:13:18;4.15;;;3.00;;
62071;SDS011;48031;48.542;13.232;2023-04-25T18:17:20;5.40;;;2.95;;
62071;SDS011;48031;48.542;13.232;2023-04-25T18:21:25;4.50;;;3.00;;
62071;SDS011;48031;48.542;13.232;2023-04-25T18:25:27;3.92;;;3.08;;
62071;SDS011;48031;48.542;13.232;2023-04-25T18:29:29;3.95;;;2.90;;
62071;SDS011;48031;48.542;13.232;2023-04-25T18:33:34;5.78;;;3.45;;
62071;SDS011;48031;48.542;13.232;2023-04-25T18:37:36;4.63;;;3.17;;
62071;SDS011;48031;48.542;13.232;2023-04-25T18:41:41;4.32;;;3.38;;
62071;SDS011;48031;48.542;13.232;2023-04-25T18:46:00;5.57;;;4.10;;
62071;SDS011;48031;48.542;13.232;2023-04-25T18:50:02;5.53;;;3.60;;
62071;SDS011;48031;48.542;13.232;2023-04-25T18:54:05;6.03;;;3.42;;
62071;SDS011;48031;48.542;13.232;2023-04-25T18:58:10;5.22;;;3.72;;
62071;SDS011;48031;48.542;13.232;2023-04-25T19:02:12;4.63;;;3.33;;
62071;SDS011;48031;48.542;13.232;2023-04-25T19:06:16;5.18;;;3.20;;
62071;SDS011;48031;48.542;13.232;2023-04-25T19:10:18;4.07;;;2.90;;
62071;SDS011;48031;48.542;13.232;2023-04-25T19:14:20;5.75;;;3.67;;
62071;SDS011;48031;48.542;13.232;2023-04-25T19:18:23;6.50;;;3.70;;
62071;SDS011;48031;48.542;13.232;2023-04-25T19:22:25;6.60;;;3.80;;
62071;SDS011;48031;48.542;13.232;2023-04-25T19:26:27;4.30;;;3.30;;
62071;SDS011;48031;48.542;13.232;2023-04-25T19:30:29;5.15;;;3.60;;
62071;SDS011;48031;48.542;13.232;2023-04-25T19:34:32;4.65;;;3.05;;
62071;SDS011;48031;48.542;13.232;2023-04-25T19:38:33;5.82;;;3.30;;
62071;SDS011;48031;48.542;13.232;2023-04-25T19:42:36;3.70;;;2.80;;
62071;SDS011;48031;48.542;13.232;2023-04-25T19:46:38;5.85;;;3.63;;
62071;SDS011;48031;48.542;13.232;2023-04-25T19:50:40;4.97;;;3.75;;
62071;SDS011;48031;48.542;13.232;2023-04-25T19:54:42;5.13;;;3.47;;
62071;SDS011;48031;48.542;13.232;2023-04-25T19:58:45;7.32;;;4.22;;
62071;SDS011;48031;48.542;13.232;2023-04-25T20:02:48;6.97;;;3.60;;
62071;SDS011;48031;48.542;13.232;2023-04-25T20:06:50;7.13;;;3.65;;
62071;SDS011;48031;48.542;13.232;2023-04-25T20:10:52;4.63;;;3.03;;
62071;SDS011;48031;48.542;13.232;2023-04-25T20:14:54;3.58;;;2.80;;
62071;SDS011;48031;48.542;13.232;2023-04-25T20:18:57;4.20;;;2.65;;
62071;SDS011;48031;48.542;13.232;2023-04-25T20:22:59;2.85;;;2.30;;
62071;SDS011;48031;48.542;13.232;2023-04-25T20:27:01;3.55;;;2.60;;
62071;SDS011;48031;48.542;13.232;2023-04-25T20:31:03;3.17;;;2.53;;
62071;SDS011;48031;48.542;13.232;2023-04-25T20:35:06;2.30;;;1.95;;
62071;SDS011;48031;48.542;13.232;2023-04-25T20:39:09;2.88;;;1.90;;
62071;SDS011;48031;48.542;13.232;2023-04-25T20:43:11;3.20;;;2.00;;
62071;SDS011;48031;48.542;13.232;2023-04-25T20:47:13;2.40;;;1.80;;
62071;SDS011;48031;48.542;13.232;2023-04-25T20:51:15;3.35;;;1.83;;
62071;SDS011;48031;48.542;13.232;2023-04-25T20:55:17;1.50;;;1.40;;
62071;SDS011;48031;48.542;13.232;2023-04-25T20:59:18;1.35;;;1.25;;
62071;SDS011;48031;48.542;13.232;2023-04-25T21:03:20;1.08;;;1.05;;
62071;SDS011;48031;48.542;13.232;2023-04-25T21:07:23;1.23;;;1.10;;
62071;SDS011;48031;48.542;13.232;2023-04-25T21:11:24;1.02;;;0.98;;
62071;SDS011;48031;48.542;13.232;2023-04-25T21:15:26;0.88;;;0.88;;
62071;SDS011;48031;48.542;13.232;2023-04-25T21:19:29;0.98;;;0.98;;
62071;SDS011;48031;48.542;13.232;2023-04-25T21:23:31;1.30;;;1.20;;
62071;SDS011;48031;48.542;13.232;2023-04-25T21:27:33;2.13;;;1.10;;
62071;SDS011;48031;48.542;13.232;2023-04-25T21:31:35;1.20;;;1.10;;
62071;SDS011;48031;48.542;13.232;2023-04-25T21:35:38;0.88;;;0.88;;
62071;SDS011;48031;48.542;13.232;2023-04-25T21:39:40;1.00;;;1.00;;
62071;SDS011;48031;48.542;13.232;2023-04-25T21:43:42;1.20;;;1.10;;
62071;SDS011;48031;48.542;13.232;2023-04-25T21:47:45;1.30;;;1.20;;
62071;SDS011;48031;48.542;13.232;2023-04-25T21:51:48;1.83;;;1.48;;
62071;SDS011;48031;48.542;13.232;2023-04-25T21:55:50;1.25;;;1.10;;
62071;SDS011;48031;48.542;13.232;2023-04-25T21:59:51;1.67;;;1.25;;
62071;SDS011;48031;48.542;13.232;2023-04-25T22:03:53;1.67;;;1.40;;
62071;SDS011;48031;48.542;13.232;2023-04-25T22:07:55;1.42;;;1.33;;
62071;SDS011;48031;48.542;13.232;2023-04-25T22:11:57;1.50;;;1.30;;
62071;SDS011;48031;48.542;13.232;2023-04-25T22:15:59;1.08;;;1.08;;
62071;SDS011;48031;48.542;13.232;2023-04-25T22:20:01;1.27;;;1.17;;
62071;SDS011;48031;48.542;13.232;2023-04-25T22:24:10;0.90;;;0.90;;
62071;SDS011;48031;48.542;13.232;2023-04-25T22:28:11;1.30;;;1.15;;
62071;SDS011;48031;48.542;13.232;2023-04-25T22:32:13;1.50;;;1.40;;
62071;SDS011;48031;48.542;13.232;2023-04-25T22:36:15;2.08;;;1.83;;
62071;SDS011;48031;48.542;13.232;2023-04-25T22:40:18;1.80;;;1.67;;
62071;SDS011;48031;48.542;13.232;2023-04-25T22:44:20;2.22;;;1.50;;
62071;SDS011;48031;48.542;13.232;2023-04-25T22:48:23;2.28;;;1.80;;
62071;SDS011;48031;48.542;13.232;2023-04-25T22:52:24;2.20;;;1.70;;
62071;SDS011;48031;48.542;13.232;2023-04-25T22:56:29;1.70;;;1.60;;
62071;SDS011;48031;48.542;13.232;2023-04-25T23:00:31;2.50;;;1.90;;
62071;SDS011;48031;48.542;13.232;2023-04-25T23:04:34;3.05;;;2.17;;
62071;SDS011;48031;48.542;13.232;2023-04-25T23:08:36;2.55;;;2.00;;
62071;SDS011;48031;48.542;13.232;2023-04-25T23:12:38;1.60;;;1.50;;
62071;SDS011;48031;48.542;13.232;2023-04-25T23:16:40;2.10;;;1.90;;
62071;SDS011;48031;48.542;13.232;2023-04-25T23:20:42;2.03;;;1.83;;
62071;SDS011;48031;48.542;13.232;2023-04-25T23:24:44;2.92;;;2.30;;
62071;SDS011;48031;48.542;13.232;2023-04-25T23:28:46;2.78;;;1.90;;
62071;SDS011;48031;48.542;13.232;2023-04-25T23:32:48;2.60;;;2.10;;
62071;SDS011;48031;48.542;13.232;2023-04-25T23:36:50;4.25;;;2.03;;
62071;SDS011;48031;48.542;13.232;2023-04-25T23:40:51;2.72;;;2.03;;
62071;SDS011;48031;48.542;13.232;2023-04-25T23:44:53;3.22;;;2.38;;
62071;SDS011;48031;48.542;13.232;2023-04-25T23:48:55;4.32;;;2.70;;
62071;SDS011;48031;48.542;13.232;2023-04-25T23:52:57;5.78;;;3.13;;
62071;SDS011;48031;48.542;13.232;2023-04-25T23:56:58;4.28;;;2.88;;
